sensor_id;sensor_type;location;lat;lon;timestamp;P1;durP1;ratioP1;P2;durP2;ratioP2
79401;SDS011;68857;47.916;106.940;2023-06-14T00:01:57;4.82;;;3.47;;
79401;SDS011;68857;47.916;106.940;2023-06-14T00:04:23;5.07;;;3.15;;
79401;SDS011;68857;47.916;106.940;2023-06-14T00:06:50;7.25;;;3.75;;
79401;SDS011;68857;47.916;106.940;2023-06-14T00:09:17;8.07;;;4.00;;
79401;SDS011;68857;47.916;106.940;2023-06-14T00:11:44;5.82;;;3.40;;
79401;SDS011;68857;47.916;106.940;2023-06-14T00:14:11;5.70;;;3.72;;
79401;SDS011;68857;47.916;106.940;2023-06-14T00:16:37;4.68;;;2.70;;
79401;SDS011;68857;47.916;106.940;2023-06-14T00:19:04;4.43;;;3.03;;
79401;SDS011;68857;47.916;106.940;2023-06-14T00:21:31;3.83;;;3.20;;
79401;SDS011;68857;47.916;106.940;2023-06-14T00:23:58;6.80;;;4.13;;
79401;SDS011;68857;47.916;106.940;2023-06-14T00:26:25;5.82;;;3.13;;
79401;SDS011;68857;47.916;106.940;2023-06-14T00:28:52;5.10;;;3.45;;
79401;SDS011;68857;47.916;106.940;2023-06-14T00:31:18;5.45;;;3.47;;
79401;SDS011;68857;47.916;106.940;2023-06-14T00:33:45;5.35;;;3.97;;
79401;SDS011;68857;47.916;106.940;2023-06-14T00:36:11;6.30;;;3.47;;
79401;SDS011;68857;47.916;106.940;2023-06-14T00:38:38;6.18;;;3.78;;
79401;SDS011;68857;47.916;106.940;2023-06-14T00:41:04;4.65;;;3.75;;
79401;SDS011;68857;47.916;106.940;2023-06-14T00:43:31;5.32;;;4.28;;
79401;SDS011;68857;47.916;106.940;2023-06-14T00:46:00;6.18;;;4.30;;
79401;SDS011;68857;47.916;106.940;2023-06-14T00:48:26;5.60;;;4.20;;
79401;SDS011;68857;47.916;106.940;2023-06-14T00:50:53;7.03;;;3.70;;
79401;SDS011;68857;47.916;106.940;2023-06-14T00:53:21;4.43;;;3.53;;
79401;SDS011;68857;47.916;106.940;2023-06-14T00:55:48;5.57;;;3.50;;
79401;SDS011;68857;47.916;106.940;2023-06-14T00:58:14;4.63;;;3.00;;
79401;SDS011;68857;47.916;106.940;2023-06-14T01:00:41;6.28;;;4.45;;
79401;SDS011;68857;47.916;106.940;2023-06-14T01:03:09;5.20;;;3.13;;
79401;SDS011;68857;47.916;106.940;2023-06-14T01:05:37;5.75;;;3.38;;
79401;SDS011;68857;47.916;106.940;2023-06-14T01:08:13;4.93;;;3.90;;
79401;SDS011;68857;47.916;106.940;2023-06-14T01:10:50;5.72;;;3.25;;
79401;SDS011;68857;47.916;106.940;2023-06-14T01:15:44;4.30;;;2.75;;
79401;SDS011;68857;47.916;106.940;2023-06-14T01:18:11;6.22;;;3.17;;
79401;SDS011;68857;47.916;106.940;2023-06-14T01:20:43;4.60;;;3.40;;
79401;SDS011;68857;47.916;106.940;2023-06-14T01:23:17;5.00;;;3.03;;
79401;SDS011;68857;47.916;106.940;2023-06-14T01:25:44;5.28;;;3.70;;
79401;SDS011;68857;47.916;106.940;2023-06-14T01:28:12;6.32;;;3.17;;
79401;SDS011;68857;47.916;106.940;2023-06-14T01:30:40;6.93;;;3.13;;
79401;SDS011;68857;47.916;106.940;2023-06-14T01:33:11;6.38;;;3.50;;
79401;SDS011;68857;47.916;106.940;2023-06-14T01:35:39;7.32;;;3.28;;
79401;SDS011;68857;47.916;106.940;2023-06-14T01:38:06;5.60;;;2.88;;
79401;SDS011;68857;47.916;106.940;2023-06-14T01:40:34;5.07;;;3.72;;
79401;SDS011;68857;47.916;106.940;2023-06-14T01:43:01;6.00;;;3.63;;
79401;SDS011;68857;47.916;106.940;2023-06-14T01:45:28;4.28;;;2.75;;
79401;SDS011;68857;47.916;106.940;2023-06-14T01:47:55;4.88;;;2.72;;
79401;SDS011;68857;47.916;106.940;2023-06-14T01:50:21;3.90;;;3.10;;
79401;SDS011;68857;47.916;106.940;2023-06-14T01:52:48;5.82;;;3.17;;
79401;SDS011;68857;47.916;106.940;2023-06-14T01:55:15;4.78;;;2.97;;
79401;SDS011;68857;47.916;106.940;2023-06-14T01:57:43;5.10;;;3.40;;
79401;SDS011;68857;47.916;106.940;2023-06-14T02:00:10;4.72;;;3.00;;
79401;SDS011;68857;47.916;106.940;2023-06-14T02:02:38;3.60;;;2.65;;
79401;SDS011;68857;47.916;106.940;2023-06-14T02:05:05;6.40;;;3.22;;
79401;SDS011;68857;47.916;106.940;2023-06-14T02:07:31;6.72;;;2.20;;
79401;SDS011;68857;47.916;106.940;2023-06-14T02:09:58;2.72;;;2.20;;
79401;SDS011;68857;47.916;106.940;2023-06-14T02:12:25;4.07;;;2.25;;
79401;SDS011;68857;47.916;106.940;2023-06-14T02:14:51;5.15;;;2.75;;
79401;SDS011;68857;47.916;106.940;2023-06-14T02:17:19;3.88;;;2.33;;
79401;SDS011;68857;47.916;106.940;2023-06-14T02:19:46;2.97;;;2.42;;
79401;SDS011;68857;47.916;106.940;2023-06-14T02:22:12;3.28;;;1.42;;
79401;SDS011;68857;47.916;106.940;2023-06-14T02:24:40;2.22;;;1.50;;
79401;SDS011;68857;47.916;106.940;2023-06-14T02:27:07;4.10;;;1.58;;
79401;SDS011;68857;47.916;106.940;2023-06-14T02:29:35;4.55;;;2.35;;
79401;SDS011;68857;47.916;106.940;2023-06-14T02:32:02;3.83;;;2.58;;
79401;SDS011;68857;47.916;106.940;2023-06-14T02:34:29;4.65;;;2.53;;
79401;SDS011;68857;47.916;106.940;2023-06-14T02:36:55;3.08;;;2.03;;
79401;SDS011;68857;47.916;106.940;2023-06-14T02:39:22;2.63;;;2.22;;
79401;SDS011;68857;47.916;106.940;2023-06-14T02:41:49;2.88;;;1.85;;
79401;SDS011;68857;47.916;106.940;2023-06-14T02:44:17;2.15;;;1.45;;
79401;SDS011;68857;47.916;106.940;2023-06-14T02:46:44;2.67;;;1.58;;
79401;SDS011;68857;47.916;106.940;2023-06-14T02:49:11;2.72;;;1.33;;
79401;SDS011;68857;47.916;106.940;2023-06-14T02:51:38;2.45;;;1.88;;
79401;SDS011;68857;47.916;106.940;2023-06-14T02:54:05;3.13;;;2.67;;
79401;SDS011;68857;47.916;106.940;2023-06-14T02:56:31;4.65;;;3.92;;
79401;SDS011;68857;47.916;106.940;2023-06-14T02:58:58;3.47;;;2.72;;
79401;SDS011;68857;47.916;106.940;2023-06-14T03:01:28;5.63;;;3.88;;
79401;SDS011;68857;47.916;106.940;2023-06-14T03:04:02;6.95;;;4.95;;
79401;SDS011;68857;47.916;106.940;2023-06-14T03:06:29;6.22;;;5.28;;
79401;SDS011;68857;47.916;106.940;2023-06-14T03:08:56;6.47;;;3.67;;
79401;SDS011;68857;47.916;106.940;2023-06-14T03:11:26;9.48;;;5.00;;
79401;SDS011;68857;47.916;106.940;2023-06-14T03:13:53;7.25;;;4.47;;
79401;SDS011;68857;47.916;106.940;2023-06-14T03:16:20;7.20;;;3.88;;
79401;SDS011;68857;47.916;106.940;2023-06-14T03:18:49;6.03;;;3.70;;
79401;SDS011;68857;47.916;106.940;2023-06-14T03:21:16;5.13;;;3.33;;
79401;SDS011;68857;47.916;106.940;2023-06-14T03:23:43;4.88;;;3.35;;
79401;SDS011;68857;47.916;106.940;2023-06-14T03:26:10;4.22;;;2.83;;
79401;SDS011;68857;47.916;106.940;2023-06-14T03:28:48;5.03;;;3.17;;
79401;SDS011;68857;47.916;106.940;2023-06-14T03:31:15;4.75;;;2.70;;
79401;SDS011;68857;47.916;106.940;2023-06-14T03:33:42;3.72;;;2.65;;
79401;SDS011;68857;47.916;106.940;2023-06-14T03:36:09;4.32;;;2.80;;
79401;SDS011;68857;47.916;106.940;2023-06-14T03:38:36;6.22;;;3.63;;
79401;SDS011;68857;47.916;106.940;2023-06-14T03:41:02;4.25;;;2.65;;
79401;SDS011;68857;47.916;106.940;2023-06-14T03:43:29;3.17;;;2.22;;
79401;SDS011;68857;47.916;106.940;2023-06-14T03:45:55;5.25;;;2.88;;
79401;SDS011;68857;47.916;106.940;2023-06-14T03:48:22;4.22;;;2.70;;
79401;SDS011;68857;47.916;106.940;2023-06-14T03:50:48;2.97;;;2.25;;
79401;SDS011;68857;47.916;106.940;2023-06-14T03:53:15;4.50;;;2.55;;
79401;SDS011;68857;47.916;106.940;2023-06-14T03:55:42;4.07;;;2.45;;
79401;SDS011;68857;47.916;106.940;2023-06-14T03:58:08;2.88;;;1.85;;
79401;SDS011;68857;47.916;106.940;2023-06-14T04:00:36;2.80;;;2.55;;
79401;SDS011;68857;47.916;106.940;2023-06-14T04:03:03;2.97;;;1.98;;
79401;SDS011;68857;47.916;106.940;2023-06-14T04:05:31;3.33;;;1.88;;
79401;SDS011;68857;47.916;106.940;2023-06-14T04:07:57;2.67;;;1.65;;
79401;SDS011;68857;47.916;106.940;2023-06-14T04:10:26;2.80;;;2.10;;
79401;SDS011;68857;47.916;106.940;2023-06-14T04:12:53;3.17;;;2.00;;
79401;SDS011;68857;47.916;106.940;2023-06-14T04:15:19;2.53;;;2.33;;
79401;SDS011;68857;47.916;106.940;2023-06-14T04:17:46;2.78;;;1.85;;
79401;SDS011;68857;47.916;106.940;2023-06-14T04:20:13;2.72;;;1.85;;
79401;SDS011;68857;47.916;106.940;2023-06-14T04:22:39;2.03;;;1.83;;
79401;SDS011;68857;47.916;106.940;2023-06-14T04:25:06;3.15;;;2.85;;
79401;SDS011;68857;47.916;106.940;2023-06-14T04:27:33;3.08;;;2.78;;
79401;SDS011;68857;47.916;106.940;2023-06-14T04:30:01;2.70;;;1.52;;
79401;SDS011;68857;47.916;106.940;2023-06-14T04:32:28;1.58;;;1.45;;
79401;SDS011;68857;47.916;106.940;2023-06-14T04:34:58;2.80;;;2.58;;
79401;SDS011;68857;47.916;106.940;2023-06-14T04:37:27;2.80;;;1.90;;
79401;SDS011;68857;47.916;106.940;2023-06-14T04:39:55;2.60;;;1.33;;
79401;SDS011;68857;47.916;106.940;2023-06-14T04:42:23;3.90;;;3.60;;
79401;SDS011;68857;47.916;106.940;2023-06-14T04:44:57;2.72;;;1.73;;
79401;SDS011;68857;47.916;106.940;2023-06-14T04:47:24;3.45;;;1.77;;
79401;SDS011;68857;47.916;106.940;2023-06-14T04:49:54;2.35;;;1.65;;
79401;SDS011;68857;47.916;106.940;2023-06-14T04:52:22;2.28;;;1.75;;
79401;SDS011;68857;47.916;106.940;2023-06-14T04:54:51;2.58;;;2.20;;
79401;SDS011;68857;47.916;106.940;2023-06-14T04:57:19;2.58;;;2.38;;
79401;SDS011;68857;47.916;106.940;2023-06-14T04:59:47;2.35;;;1.98;;
79401;SDS011;68857;47.916;106.940;2023-06-14T05:02:24;2.33;;;2.13;;
79401;SDS011;68857;47.916;106.940;2023-06-14T05:04:50;2.25;;;1.63;;
79401;SDS011;68857;47.916;106.940;2023-06-14T05:07:17;1.88;;;1.40;;
79401;SDS011;68857;47.916;106.940;2023-06-14T05:09:44;2.50;;;2.10;;
79401;SDS011;68857;47.916;106.940;2023-06-14T05:12:11;2.60;;;1.58;;
79401;SDS011;68857;47.916;106.940;2023-06-14T05:14:37;2.55;;;1.67;;
79401;SDS011;68857;47.916;106.940;2023-06-14T05:17:04;2.25;;;2.05;;
79401;SDS011;68857;47.916;106.940;2023-06-14T05:19:31;2.50;;;1.77;;
79401;SDS011;68857;47.916;106.940;2023-06-14T05:21:57;2.42;;;2.20;;
79401;SDS011;68857;47.916;106.940;2023-06-14T05:24:24;2.05;;;1.70;;
79401;SDS011;68857;47.916;106.940;2023-06-14T05:26:51;4.32;;;3.97;;
79401;SDS011;68857;47.916;106.940;2023-06-14T05:29:17;2.58;;;2.25;;
79401;SDS011;68857;47.916;106.940;2023-06-14T05:31:44;2.88;;;2.00;;
79401;SDS011;68857;47.916;106.940;2023-06-14T05:34:10;3.90;;;1.88;;
79401;SDS011;68857;47.916;106.940;2023-06-14T05:36:37;2.92;;;1.88;;
79401;SDS011;68857;47.916;106.940;2023-06-14T05:39:04;4.30;;;4.00;;
79401;SDS011;68857;47.916;106.940;2023-06-14T05:41:31;2.47;;;2.28;;
79401;SDS011;68857;47.916;106.940;2023-06-14T05:43:58;2.65;;;2.38;;
79401;SDS011;68857;47.916;106.940;2023-06-14T05:46:25;2.63;;;2.22;;
79401;SDS011;68857;47.916;106.940;2023-06-14T05:48:54;2.97;;;1.75;;
79401;SDS011;68857;47.916;106.940;2023-06-14T05:51:21;3.30;;;3.10;;
79401;SDS011;68857;47.916;106.940;2023-06-14T05:53:50;3.13;;;1.45;;
79401;SDS011;68857;47.916;106.940;2023-06-14T05:56:17;1.75;;;1.65;;
79401;SDS011;68857;47.916;106.940;2023-06-14T05:58:44;2.75;;;1.45;;
79401;SDS011;68857;47.916;106.940;2023-06-14T06:01:10;2.22;;;1.73;;
79401;SDS011;68857;47.916;106.940;2023-06-14T06:03:38;2.35;;;1.67;;
79401;SDS011;68857;47.916;106.940;2023-06-14T06:06:05;2.13;;;1.92;;
79401;SDS011;68857;47.916;106.940;2023-06-14T06:08:31;2.30;;;2.10;;
79401;SDS011;68857;47.916;106.940;2023-06-14T06:10:58;2.78;;;1.83;;
79401;SDS011;68857;47.916;106.940;2023-06-14T06:13:25;1.98;;;1.83;;
79401;SDS011;68857;47.916;106.940;2023-06-14T06:15:52;2.80;;;2.30;;
79401;SDS011;68857;47.916;106.940;2023-06-14T06:18:18;2.58;;;2.38;;
79401;SDS011;68857;47.916;106.940;2023-06-14T06:20:45;3.97;;;2.80;;
79401;SDS011;68857;47.916;106.940;2023-06-14T06:23:12;2.88;;;2.67;;
79401;SDS011;68857;47.916;106.940;2023-06-14T06:25:39;2.75;;;2.00;;
79401;SDS011;68857;47.916;106.940;2023-06-14T06:28:05;2.78;;;2.25;;
79401;SDS011;68857;47.916;106.940;2023-06-14T06:30:32;2.88;;;2.38;;
79401;SDS011;68857;47.916;106.940;2023-06-14T06:32:58;2.42;;;2.05;;
79401;SDS011;68857;47.916;106.940;2023-06-14T06:35:25;3.03;;;2.40;;
79401;SDS011;68857;47.916;106.940;2023-06-14T06:37:51;2.88;;;2.42;;
79401;SDS011;68857;47.916;106.940;2023-06-14T06:40:18;3.67;;;3.10;;
79401;SDS011;68857;47.916;106.940;2023-06-14T06:42:44;2.63;;;2.42;;
79401;SDS011;68857;47.916;106.940;2023-06-14T06:45:11;3.28;;;2.75;;
79401;SDS011;68857;47.916;106.940;2023-06-14T06:47:37;3.05;;;2.45;;
79401;SDS011;68857;47.916;106.940;2023-06-14T06:50:04;2.72;;;2.53;;
79401;SDS011;68857;47.916;106.940;2023-06-14T06:52:33;3.97;;;2.55;;
79401;SDS011;68857;47.916;106.940;2023-06-14T06:54:59;2.50;;;1.88;;
79401;SDS011;68857;47.916;106.940;2023-06-14T06:57:25;3.88;;;3.58;;
79401;SDS011;68857;47.916;106.940;2023-06-14T06:59:54;2.75;;;2.25;;
79401;SDS011;68857;47.916;106.940;2023-06-14T07:02:20;3.05;;;2.03;;
79401;SDS011;68857;47.916;106.940;2023-06-14T07:04:47;3.17;;;2.97;;
79401;SDS011;68857;47.916;106.940;2023-06-14T07:07:13;2.85;;;2.65;;
79401;SDS011;68857;47.916;106.940;2023-06-14T07:09:39;3.83;;;3.55;;
79401;SDS011;68857;47.916;106.940;2023-06-14T07:12:07;2.90;;;2.47;;
79401;SDS011;68857;47.916;106.940;2023-06-14T07:14:34;3.20;;;2.38;;
79401;SDS011;68857;47.916;106.940;2023-06-14T07:17:00;4.30;;;1.98;;
79401;SDS011;68857;47.916;106.940;2023-06-14T07:19:27;2.75;;;1.98;;
79401;SDS011;68857;47.916;106.940;2023-06-14T07:21:53;3.30;;;2.20;;
79401;SDS011;68857;47.916;106.940;2023-06-14T07:24:20;3.00;;;1.73;;
79401;SDS011;68857;47.916;106.940;2023-06-14T07:26:46;2.05;;;1.80;;
79401;SDS011;68857;47.916;106.940;2023-06-14T07:29:16;2.58;;;2.38;;
79401;SDS011;68857;47.916;106.940;2023-06-14T07:31:43;1.95;;;1.58;;
79401;SDS011;68857;47.916;106.940;2023-06-14T07:34:09;2.78;;;2.47;;
79401;SDS011;68857;47.916;106.940;2023-06-14T07:36:36;2.38;;;2.00;;
79401;SDS011;68857;47.916;106.940;2023-06-14T07:39:03;2.25;;;2.03;;
79401;SDS011;68857;47.916;106.940;2023-06-14T07:41:32;3.10;;;2.90;;
79401;SDS011;68857;47.916;106.940;2023-06-14T07:43:58;3.13;;;1.95;;
79401;SDS011;68857;47.916;106.940;2023-06-14T07:46:25;1.90;;;1.67;;
79401;SDS011;68857;47.916;106.940;2023-06-14T07:48:51;3.22;;;2.70;;
79401;SDS011;68857;47.916;106.940;2023-06-14T07:51:18;1.95;;;1.85;;
79401;SDS011;68857;47.916;106.940;2023-06-14T07:53:45;2.20;;;1.98;;
79401;SDS011;68857;47.916;106.940;2023-06-14T07:56:11;2.25;;;2.05;;
79401;SDS011;68857;47.916;106.940;2023-06-14T07:58:38;2.58;;;2.28;;
79401;SDS011;68857;47.916;106.940;2023-06-14T08:01:04;2.58;;;2.38;;
79401;SDS011;68857;47.916;106.940;2023-06-14T08:03:33;2.20;;;1.67;;
79401;SDS011;68857;47.916;106.940;2023-06-14T08:06:00;3.30;;;2.15;;
79401;SDS011;68857;47.916;106.940;2023-06-14T08:08:26;2.55;;;2.35;;
79401;SDS011;68857;47.916;106.940;2023-06-14T08:10:53;1.92;;;1.73;;
79401;SDS011;68857;47.916;106.940;2023-06-14T08:13:20;1.98;;;1.88;;
79401;SDS011;68857;47.916;106.940;2023-06-14T08:15:46;2.20;;;2.00;;
79401;SDS011;68857;47.916;106.940;2023-06-14T08:18:13;2.00;;;1.90;;
79401;SDS011;68857;47.916;106.940;2023-06-14T08:20:40;1.83;;;1.48;;
79401;SDS011;68857;47.916;106.940;2023-06-14T08:23:07;2.55;;;2.35;;
79401;SDS011;68857;47.916;106.940;2023-06-14T08:25:34;3.22;;;2.25;;
79401;SDS011;68857;47.916;106.940;2023-06-14T08:28:01;2.47;;;2.00;;
79401;SDS011;68857;47.916;106.940;2023-06-14T08:30:27;2.45;;;2.22;;
79401;SDS011;68857;47.916;106.940;2023-06-14T08:32:53;3.97;;;3.60;;
79401;SDS011;68857;47.916;106.940;2023-06-14T08:35:21;2.30;;;2.10;;
79401;SDS011;68857;47.916;106.940;2023-06-14T08:37:48;2.90;;;2.47;;
79401;SDS011;68857;47.916;106.940;2023-06-14T08:40:19;3.00;;;1.80;;
79401;SDS011;68857;47.916;106.940;2023-06-14T08:42:50;3.42;;;2.40;;
79401;SDS011;68857;47.916;106.940;2023-06-14T08:45:18;6.38;;;2.38;;
79401;SDS011;68857;47.916;106.940;2023-06-14T08:47:46;3.05;;;1.90;;
79401;SDS011;68857;47.916;106.940;2023-06-14T08:50:26;4.82;;;2.30;;
79401;SDS011;68857;47.916;106.940;2023-06-14T08:52:57;3.97;;;2.10;;
79401;SDS011;68857;47.916;106.940;2023-06-14T08:57:54;3.25;;;2.95;;
79401;SDS011;68857;47.916;106.940;2023-06-14T09:00:25;4.32;;;1.65;;
79401;SDS011;68857;47.916;106.940;2023-06-14T09:02:52;2.40;;;2.17;;
79401;SDS011;68857;47.916;106.940;2023-06-14T09:05:25;3.40;;;3.00;;
79401;SDS011;68857;47.916;106.940;2023-06-14T09:07:52;4.03;;;3.20;;
79401;SDS011;68857;47.916;106.940;2023-06-14T09:10:20;5.03;;;2.75;;
79401;SDS011;68857;47.916;106.940;2023-06-14T09:13:03;3.80;;;2.45;;
79401;SDS011;68857;47.916;106.940;2023-06-14T09:15:30;2.60;;;1.95;;
79401;SDS011;68857;47.916;106.940;2023-06-14T09:17:57;2.88;;;2.03;;
79401;SDS011;68857;47.916;106.940;2023-06-14T09:20:24;3.35;;;3.05;;
79401;SDS011;68857;47.916;106.940;2023-06-14T09:22:50;3.78;;;3.13;;
79401;SDS011;68857;47.916;106.940;2023-06-14T09:25:17;2.72;;;2.53;;
79401;SDS011;68857;47.916;106.940;2023-06-14T09:27:45;3.58;;;3.25;;
79401;SDS011;68857;47.916;106.940;2023-06-14T09:30:11;3.42;;;3.03;;
79401;SDS011;68857;47.916;106.940;2023-06-14T09:32:38;3.08;;;2.58;;
79401;SDS011;68857;47.916;106.940;2023-06-14T09:35:09;5.15;;;4.65;;
79401;SDS011;68857;47.916;106.940;2023-06-14T09:37:35;2.97;;;2.47;;
79401;SDS011;68857;47.916;106.940;2023-06-14T09:40:05;4.05;;;3.10;;
79401;SDS011;68857;47.916;106.940;2023-06-14T09:42:32;4.72;;;2.92;;
79401;SDS011;68857;47.916;106.940;2023-06-14T09:45:02;2.78;;;2.33;;
79401;SDS011;68857;47.916;106.940;2023-06-14T09:47:29;3.55;;;2.72;;
79401;SDS011;68857;47.916;106.940;2023-06-14T09:49:56;3.33;;;2.50;;
79401;SDS011;68857;47.916;106.940;2023-06-14T09:52:22;3.75;;;3.10;;
79401;SDS011;68857;47.916;106.940;2023-06-14T09:54:49;3.53;;;2.85;;
79401;SDS011;68857;47.916;106.940;2023-06-14T09:57:16;7.22;;;2.65;;
79401;SDS011;68857;47.916;106.940;2023-06-14T09:59:46;3.90;;;2.75;;
79401;SDS011;68857;47.916;106.940;2023-06-14T10:02:25;4.03;;;3.72;;
79401;SDS011;68857;47.916;106.940;2023-06-14T10:05:02;3.45;;;3.13;;
79401;SDS011;68857;47.916;106.940;2023-06-14T10:07:32;3.47;;;3.17;;
79401;SDS011;68857;47.916;106.940;2023-06-14T10:10:01;3.30;;;2.08;;
79401;SDS011;68857;47.916;106.940;2023-06-14T10:12:28;2.95;;;2.35;;
79401;SDS011;68857;47.916;106.940;2023-06-14T10:14:54;4.47;;;2.05;;
79401;SDS011;68857;47.916;106.940;2023-06-14T10:17:33;3.45;;;2.25;;
79401;SDS011;68857;47.916;106.940;2023-06-14T10:22:58;4.22;;;2.22;;
79401;SDS011;68857;47.916;106.940;2023-06-14T10:25:29;3.35;;;3.03;;
79401;SDS011;68857;47.916;106.940;2023-06-14T10:28:03;5.32;;;2.55;;
79401;SDS011;68857;47.916;106.940;2023-06-14T10:30:30;3.75;;;2.30;;
79401;SDS011;68857;47.916;106.940;2023-06-14T10:33:04;4.80;;;2.90;;
79401;SDS011;68857;47.916;106.940;2023-06-14T10:35:31;5.90;;;2.65;;
79401;SDS011;68857;47.916;106.940;2023-06-14T10:38:11;3.63;;;2.60;;
79401;SDS011;68857;47.916;106.940;2023-06-14T10:40:38;5.65;;;3.83;;
79401;SDS011;68857;47.916;106.940;2023-06-14T10:43:21;5.03;;;3.05;;
79401;SDS011;68857;47.916;106.940;2023-06-14T10:46:33;6.32;;;3.03;;
79401;SDS011;68857;47.916;106.940;2023-06-14T10:48:39;5.25;;;2.53;;
79401;SDS011;68857;47.916;106.940;2023-06-14T10:51:15;4.30;;;2.42;;
79401;SDS011;68857;47.916;106.940;2023-06-14T10:53:45;5.07;;;2.38;;
79401;SDS011;68857;47.916;106.940;2023-06-14T10:56:33;5.75;;;5.30;;
79401;SDS011;68857;47.916;106.940;2023-06-14T10:58:59;4.35;;;2.17;;
79401;SDS011;68857;47.916;106.940;2023-06-14T11:04:03;3.47;;;3.28;;
79401;SDS011;68857;47.916;106.940;2023-06-14T11:06:38;3.55;;;2.45;;
79401;SDS011;68857;47.916;106.940;2023-06-14T11:09:12;2.88;;;1.85;;
79401;SDS011;68857;47.916;106.940;2023-06-14T11:11:45;4.32;;;2.45;;
79401;SDS011;68857;47.916;106.940;2023-06-14T11:14:12;2.88;;;2.65;;
79401;SDS011;68857;47.916;106.940;2023-06-14T11:16:38;3.40;;;2.78;;
79401;SDS011;68857;47.916;106.940;2023-06-14T11:19:05;3.55;;;2.05;;
79401;SDS011;68857;47.916;106.940;2023-06-14T11:21:32;3.20;;;2.38;;
79401;SDS011;68857;47.916;106.940;2023-06-14T11:23:59;3.50;;;2.35;;
79401;SDS011;68857;47.916;106.940;2023-06-14T11:26:26;2.70;;;2.33;;
79401;SDS011;68857;47.916;106.940;2023-06-14T11:29:00;3.50;;;2.33;;
79401;SDS011;68857;47.916;106.940;2023-06-14T11:31:27;3.00;;;2.10;;
79401;SDS011;68857;47.916;106.940;2023-06-14T11:33:57;3.33;;;3.13;;
79401;SDS011;68857;47.916;106.940;2023-06-14T11:36:31;3.17;;;2.20;;
79401;SDS011;68857;47.916;106.940;2023-06-14T11:39:01;2.60;;;2.38;;
79401;SDS011;68857;47.916;106.940;2023-06-14T11:44:05;2.22;;;2.03;;
79401;SDS011;68857;47.916;106.940;2023-06-14T11:46:32;3.55;;;2.60;;
79401;SDS011;68857;47.916;106.940;2023-06-14T11:48:59;4.43;;;3.97;;
79401;SDS011;68857;47.916;106.940;2023-06-14T11:51:29;3.38;;;2.83;;
79401;SDS011;68857;47.916;106.940;2023-06-14T11:53:55;4.18;;;2.38;;
79401;SDS011;68857;47.916;106.940;2023-06-14T11:56:23;4.45;;;2.80;;
79401;SDS011;68857;47.916;106.940;2023-06-14T11:58:52;2.67;;;2.13;;
79401;SDS011;68857;47.916;106.940;2023-06-14T12:01:21;3.17;;;1.95;;
79401;SDS011;68857;47.916;106.940;2023-06-14T12:03:48;2.55;;;2.20;;
79401;SDS011;68857;47.916;106.940;2023-06-14T12:06:15;2.85;;;1.85;;
79401;SDS011;68857;47.916;106.940;2023-06-14T12:08:43;3.72;;;2.20;;
79401;SDS011;68857;47.916;106.940;2023-06-14T12:11:11;4.35;;;3.67;;
79401;SDS011;68857;47.916;106.940;2023-06-14T12:13:41;6.05;;;2.50;;
79401;SDS011;68857;47.916;106.940;2023-06-14T12:16:09;2.28;;;1.60;;
79401;SDS011;68857;47.916;106.940;2023-06-14T12:18:36;5.47;;;2.13;;
79401;SDS011;68857;47.916;106.940;2023-06-14T12:21:09;3.63;;;2.15;;
79401;SDS011;68857;47.916;106.940;2023-06-14T12:26:09;2.22;;;2.00;;
79401;SDS011;68857;47.916;106.940;2023-06-14T12:28:39;2.47;;;1.58;;
79401;SDS011;68857;47.916;106.940;2023-06-14T12:31:07;4.07;;;1.92;;
79401;SDS011;68857;47.916;106.940;2023-06-14T12:33:33;3.38;;;1.55;;
79401;SDS011;68857;47.916;106.940;2023-06-14T12:36:02;2.75;;;1.60;;
79401;SDS011;68857;47.916;106.940;2023-06-14T12:38:29;2.28;;;1.42;;
79401;SDS011;68857;47.916;106.940;2023-06-14T12:40:56;2.45;;;2.20;;
79401;SDS011;68857;47.916;106.940;2023-06-14T12:43:23;4.05;;;2.28;;
79401;SDS011;68857;47.916;106.940;2023-06-14T12:45:50;2.55;;;1.80;;
79401;SDS011;68857;47.916;106.940;2023-06-14T12:48:16;2.60;;;1.63;;
79401;SDS011;68857;47.916;106.940;2023-06-14T12:50:43;3.58;;;2.08;;
79401;SDS011;68857;47.916;106.940;2023-06-14T12:53:09;2.22;;;2.03;;
79401;SDS011;68857;47.916;106.940;2023-06-14T12:55:36;4.53;;;4.13;;
79401;SDS011;68857;47.916;106.940;2023-06-14T12:58:02;3.55;;;2.53;;
79401;SDS011;68857;47.916;106.940;2023-06-14T13:00:29;4.07;;;1.60;;
79401;SDS011;68857;47.916;106.940;2023-06-14T13:02:56;2.67;;;2.00;;
79401;SDS011;68857;47.916;106.940;2023-06-14T13:05:23;3.80;;;2.30;;
79401;SDS011;68857;47.916;106.940;2023-06-14T13:07:50;3.35;;;1.70;;
79401;SDS011;68857;47.916;106.940;2023-06-14T13:10:17;2.50;;;2.22;;
79401;SDS011;68857;47.916;106.940;2023-06-14T13:12:43;3.08;;;1.58;;
79401;SDS011;68857;47.916;106.940;2023-06-14T13:15:10;3.65;;;1.77;;
79401;SDS011;68857;47.916;106.940;2023-06-14T13:17:37;2.70;;;1.73;;
79401;SDS011;68857;47.916;106.940;2023-06-14T13:20:04;3.78;;;2.85;;
79401;SDS011;68857;47.916;106.940;2023-06-14T13:22:32;4.35;;;2.60;;
79401;SDS011;68857;47.916;106.940;2023-06-14T13:24:59;5.68;;;1.80;;
79401;SDS011;68857;47.916;106.940;2023-06-14T13:27:25;4.35;;;2.03;;
79401;SDS011;68857;47.916;106.940;2023-06-14T13:29:52;7.15;;;3.10;;
79401;SDS011;68857;47.916;106.940;2023-06-14T13:32:20;4.30;;;1.92;;
79401;SDS011;68857;47.916;106.940;2023-06-14T13:34:47;3.85;;;2.53;;
79401;SDS011;68857;47.916;106.940;2023-06-14T13:37:13;9.15;;;2.50;;
79401;SDS011;68857;47.916;106.940;2023-06-14T13:39:40;7.05;;;3.47;;
79401;SDS011;68857;47.916;106.940;2023-06-14T13:42:06;7.15;;;3.05;;
79401;SDS011;68857;47.916;106.940;2023-06-14T13:44:33;6.30;;;3.78;;
79401;SDS011;68857;47.916;106.940;2023-06-14T13:47:00;6.30;;;3.30;;
79401;SDS011;68857;47.916;106.940;2023-06-14T13:49:26;6.03;;;2.78;;
79401;SDS011;68857;47.916;106.940;2023-06-14T13:51:52;8.18;;;3.33;;
79401;SDS011;68857;47.916;106.940;2023-06-14T13:54:20;7.68;;;3.35;;
79401;SDS011;68857;47.916;106.940;2023-06-14T13:56:47;5.32;;;3.33;;
79401;SDS011;68857;47.916;106.940;2023-06-14T13:59:14;6.20;;;3.80;;
79401;SDS011;68857;47.916;106.940;2023-06-14T14:01:41;4.68;;;2.53;;
79401;SDS011;68857;47.916;106.940;2023-06-14T14:04:08;6.18;;;2.50;;
79401;SDS011;68857;47.916;106.940;2023-06-14T14:06:34;4.63;;;2.58;;
79401;SDS011;68857;47.916;106.940;2023-06-14T14:09:01;3.88;;;2.72;;
79401;SDS011;68857;47.916;106.940;2023-06-14T14:11:27;3.90;;;2.17;;
79401;SDS011;68857;47.916;106.940;2023-06-14T14:13:57;4.95;;;3.05;;
79401;SDS011;68857;47.916;106.940;2023-06-14T14:16:24;3.47;;;2.65;;
79401;SDS011;68857;47.916;106.940;2023-06-14T14:18:51;3.70;;;2.55;;
79401;SDS011;68857;47.916;106.940;2023-06-14T14:21:17;5.65;;;3.08;;
79401;SDS011;68857;47.916;106.940;2023-06-14T14:23:44;4.95;;;3.15;;
79401;SDS011;68857;47.916;106.940;2023-06-14T14:26:10;7.25;;;3.40;;
79401;SDS011;68857;47.916;106.940;2023-06-14T14:28:37;6.28;;;2.95;;
79401;SDS011;68857;47.916;106.940;2023-06-14T14:31:03;5.32;;;2.78;;
79401;SDS011;68857;47.916;106.940;2023-06-14T14:33:30;7.13;;;3.38;;
79401;SDS011;68857;47.916;106.940;2023-06-14T14:35:56;7.85;;;3.58;;
79401;SDS011;68857;47.916;106.940;2023-06-14T14:38:23;5.70;;;3.05;;
79401;SDS011;68857;47.916;106.940;2023-06-14T14:40:49;5.32;;;4.50;;